Athens Ben Epps Airport
KAHN : now visible

Airfield :











YOU CAN JOIN US ON...

 
LOGIN :

Register | Disclaimer

   EN    FR    IT 

 









Legend :    VFR   Marginal VFR   IFR   Intensive IFR   Very Intensive IFR
Visi :
Ceiling :
>= 8 km
>= 3000ft
5 to 8 km
1000 to 3000 ft
1500m to 5 km
500 to 1000 ft
800 to 1500m
200 to 500 ft
< 800m
< 200 ft
Symbols :   Thunderstorms  Fog  Heavy snow  Heavy precipitations  Wind > 20 kt






- Airport Elevation : 808 ft
- IATA code : AHN


KAHN - Athens Ben Epps

CURRENT METAR :
  • 130451Z AUTO 04007KT 6SM -RA BR OVC006 03/02 A3036 RMK AO2 RAB0357 SLP285 P0002 T00330017 401171022

EXPIRED METARs :
  • 130351Z AUTO 07009KT 10SM BKN009 BKN013 OVC024 04/02 A3036 RMK AO2 RAB0252E02B25E40 SLP285 P0001 T00390022
  • 130344Z AUTO 07010KT 10SM SCT008 OVC024 04/02 A3036 RMK AO2 RAB0252E02B25E40 P0001 T00390022
  • 130251Z AUTO 07013KT 10SM OVC025 04/02 A3037 RMK AO2 RAE38 SLP290 P0003 60009 T00390017 50000

TAF KAHN
Valid from the 13 at 04:00 until the 14 at 00:00 UTC


130334Z 1304/1324 07010KT P6SM -SHRA SCT017 OVC025
FM130700 06008KT 6SM -SHRA BR OVC009
FM131000 06009KT 3SM SHRA BR OVC005
FM131900 07007KT 2SM SHRA BR OVC004



MET'MAP, your aeronautical weather chart ! - Copyright ORBIFLY December 2007 - Disclaimer

ORBIFLY MET'MAP TEAM :

Programming & Development : Alexandra Zaïnal
Concept & original design : Baudouin d'Aumeries
Assistance for programming : Marc-Olivier Méhu
Technical & hardware support : Manuel Goepfert

Contact : metmap@orbifly.com




SOURCES & CREDITS :

   NOAA       Earth
Advisory